sensor_id;sensor_type;location;lat;lon;timestamp;P1;durP1;ratioP1;P2;durP2;ratioP2
15655;SDS011;7928;43.614;1.456;2022-12-13T00:01:25;4.97;;;4.30;;
15655;SDS011;7928;43.614;1.456;2022-12-13T00:03:54;4.30;;;3.70;;
15655;SDS011;7928;43.614;1.456;2022-12-13T00:06:22;5.27;;;3.40;;
15655;SDS011;7928;43.614;1.456;2022-12-13T00:08:50;3.97;;;3.13;;
15655;SDS011;7928;43.614;1.456;2022-12-13T00:11:17;6.33;;;3.30;;
15655;SDS011;7928;43.614;1.456;2022-12-13T00:13:46;4.80;;;3.13;;
15655;SDS011;7928;43.614;1.456;2022-12-13T00:16:13;3.70;;;3.13;;
15655;SDS011;7928;43.614;1.456;2022-12-13T00:18:41;3.30;;;2.67;;
15655;SDS011;7928;43.614;1.456;2022-12-13T00:21:10;3.43;;;2.77;;
15655;SDS011;7928;43.614;1.456;2022-12-13T00:23:39;3.93;;;2.73;;
15655;SDS011;7928;43.614;1.456;2022-12-13T00:26:08;3.47;;;2.37;;
15655;SDS011;7928;43.614;1.456;2022-12-13T00:28:37;3.43;;;2.60;;
15655;SDS011;7928;43.614;1.456;2022-12-13T00:31:06;2.97;;;2.43;;
15655;SDS011;7928;43.614;1.456;2022-12-13T00:33:34;3.23;;;2.37;;
15655;SDS011;7928;43.614;1.456;2022-12-13T00:36:03;3.83;;;2.73;;
15655;SDS011;7928;43.614;1.456;2022-12-13T00:38:31;3.00;;;2.60;;
15655;SDS011;7928;43.614;1.456;2022-12-13T00:40:59;2.97;;;2.47;;
15655;SDS011;7928;43.614;1.456;2022-12-13T00:43:34;3.90;;;2.53;;
15655;SDS011;7928;43.614;1.456;2022-12-13T00:46:01;3.90;;;3.13;;
15655;SDS011;7928;43.614;1.456;2022-12-13T00:48:29;3.67;;;2.70;;
15655;SDS011;7928;43.614;1.456;2022-12-13T00:50:56;4.57;;;2.60;;
15655;SDS011;7928;43.614;1.456;2022-12-13T00:53:23;3.20;;;2.50;;
15655;SDS011;7928;43.614;1.456;2022-12-13T00:55:50;2.80;;;2.20;;
15655;SDS011;7928;43.614;1.456;2022-12-13T00:58:17;4.83;;;2.50;;
15655;SDS011;7928;43.614;1.456;2022-12-13T01:00:44;3.23;;;2.40;;
15655;SDS011;7928;43.614;1.456;2022-12-13T01:03:12;3.03;;;2.23;;
15655;SDS011;7928;43.614;1.456;2022-12-13T01:05:50;3.20;;;2.40;;
15655;SDS011;7928;43.614;1.456;2022-12-13T01:08:17;3.20;;;2.60;;
15655;SDS011;7928;43.614;1.456;2022-12-13T01:10:45;3.27;;;2.63;;
15655;SDS011;7928;43.614;1.456;2022-12-13T01:13:14;3.00;;;2.40;;
15655;SDS011;7928;43.614;1.456;2022-12-13T01:15:41;3.30;;;2.50;;
15655;SDS011;7928;43.614;1.456;2022-12-13T01:18:18;3.53;;;2.37;;
15655;SDS011;7928;43.614;1.456;2022-12-13T01:20:56;4.37;;;2.53;;
15655;SDS011;7928;43.614;1.456;2022-12-13T01:23:25;3.30;;;2.77;;
15655;SDS011;7928;43.614;1.456;2022-12-13T01:25:52;3.87;;;2.93;;
15655;SDS011;7928;43.614;1.456;2022-12-13T01:28:19;4.40;;;3.53;;
15655;SDS011;7928;43.614;1.456;2022-12-13T01:30:52;4.13;;;2.93;;
15655;SDS011;7928;43.614;1.456;2022-12-13T01:33:20;3.13;;;2.80;;
15655;SDS011;7928;43.614;1.456;2022-12-13T01:35:48;3.57;;;3.10;;
15655;SDS011;7928;43.614;1.456;2022-12-13T01:38:16;4.90;;;3.13;;
15655;SDS011;7928;43.614;1.456;2022-12-13T01:40:44;3.80;;;3.00;;
15655;SDS011;7928;43.614;1.456;2022-12-13T01:43:12;5.00;;;3.30;;
15655;SDS011;7928;43.614;1.456;2022-12-13T01:45:40;4.20;;;3.30;;
15655;SDS011;7928;43.614;1.456;2022-12-13T01:48:07;3.40;;;3.10;;
15655;SDS011;7928;43.614;1.456;2022-12-13T01:50:48;4.33;;;2.73;;
15655;SDS011;7928;43.614;1.456;2022-12-13T01:53:19;3.40;;;3.10;;
15655;SDS011;7928;43.614;1.456;2022-12-13T01:55:51;2.60;;;2.40;;
15655;SDS011;7928;43.614;1.456;2022-12-13T01:58:21;3.47;;;3.10;;
15655;SDS011;7928;43.614;1.456;2022-12-13T02:00:49;3.27;;;2.77;;
15655;SDS011;7928;43.614;1.456;2022-12-13T02:03:16;4.77;;;3.50;;
15655;SDS011;7928;43.614;1.456;2022-12-13T02:05:47;3.43;;;2.90;;
15655;SDS011;7928;43.614;1.456;2022-12-13T02:08:21;3.30;;;2.87;;
15655;SDS011;7928;43.614;1.456;2022-12-13T02:10:49;3.67;;;3.20;;
15655;SDS011;7928;43.614;1.456;2022-12-13T02:13:16;3.47;;;2.70;;
15655;SDS011;7928;43.614;1.456;2022-12-13T02:15:46;3.83;;;2.73;;
15655;SDS011;7928;43.614;1.456;2022-12-13T02:18:28;3.30;;;2.97;;
15655;SDS011;7928;43.614;1.456;2022-12-13T02:21:12;3.73;;;2.77;;
15655;SDS011;7928;43.614;1.456;2022-12-13T02:26:49;3.93;;;3.53;;
15655;SDS011;7928;43.614;1.456;2022-12-13T02:32:24;4.00;;;3.33;;
15655;SDS011;7928;43.614;1.456;2022-12-13T02:34:59;3.60;;;2.83;;
15655;SDS011;7928;43.614;1.456;2022-12-13T02:37:31;3.20;;;2.77;;
15655;SDS011;7928;43.614;1.456;2022-12-13T02:40:13;2.97;;;2.63;;
15655;SDS011;7928;43.614;1.456;2022-12-13T02:42:48;3.80;;;2.93;;
15655;SDS011;7928;43.614;1.456;2022-12-13T02:45:22;3.37;;;2.70;;
15655;SDS011;7928;43.614;1.456;2022-12-13T02:47:54;2.77;;;2.47;;
15655;SDS011;7928;43.614;1.456;2022-12-13T02:50:25;2.93;;;2.63;;
15655;SDS011;7928;43.614;1.456;2022-12-13T02:52:53;3.20;;;2.80;;
15655;SDS011;7928;43.614;1.456;2022-12-13T02:55:21;3.30;;;2.83;;
15655;SDS011;7928;43.614;1.456;2022-12-13T02:57:50;5.10;;;2.87;;
15655;SDS011;7928;43.614;1.456;2022-12-13T03:00:18;2.93;;;2.63;;
15655;SDS011;7928;43.614;1.456;2022-12-13T03:02:51;3.13;;;2.70;;
15655;SDS011;7928;43.614;1.456;2022-12-13T03:05:30;3.37;;;3.00;;
15655;SDS011;7928;43.614;1.456;2022-12-13T03:08:23;2.93;;;2.60;;
15655;SDS011;7928;43.614;1.456;2022-12-13T03:10:56;3.33;;;2.43;;
15655;SDS011;7928;43.614;1.456;2022-12-13T03:13:29;3.70;;;3.30;;
15655;SDS011;7928;43.614;1.456;2022-12-13T03:16:05;3.47;;;2.83;;
15655;SDS011;7928;43.614;1.456;2022-12-13T03:18:38;3.53;;;3.03;;
15655;SDS011;7928;43.614;1.456;2022-12-13T03:21:07;2.77;;;2.47;;
15655;SDS011;7928;43.614;1.456;2022-12-13T03:23:35;4.17;;;2.53;;
15655;SDS011;7928;43.614;1.456;2022-12-13T03:26:04;3.60;;;2.67;;
15655;SDS011;7928;43.614;1.456;2022-12-13T03:28:34;4.33;;;2.70;;
15655;SDS011;7928;43.614;1.456;2022-12-13T03:31:02;3.40;;;3.00;;
15655;SDS011;7928;43.614;1.456;2022-12-13T03:33:29;3.33;;;2.50;;
15655;SDS011;7928;43.614;1.456;2022-12-13T03:35:59;2.80;;;2.50;;
15655;SDS011;7928;43.614;1.456;2022-12-13T03:38:27;3.00;;;2.60;;
15655;SDS011;7928;43.614;1.456;2022-12-13T03:40:56;2.70;;;2.50;;
15655;SDS011;7928;43.614;1.456;2022-12-13T03:43:25;4.67;;;3.10;;
15655;SDS011;7928;43.614;1.456;2022-12-13T03:45:52;3.47;;;2.40;;
15655;SDS011;7928;43.614;1.456;2022-12-13T03:48:20;2.80;;;2.60;;
15655;SDS011;7928;43.614;1.456;2022-12-13T03:50:47;2.80;;;2.47;;
15655;SDS011;7928;43.614;1.456;2022-12-13T03:53:16;3.17;;;2.87;;
15655;SDS011;7928;43.614;1.456;2022-12-13T03:55:43;3.33;;;2.67;;
15655;SDS011;7928;43.614;1.456;2022-12-13T03:58:11;2.83;;;2.57;;
15655;SDS011;7928;43.614;1.456;2022-12-13T04:00:38;2.73;;;2.50;;
15655;SDS011;7928;43.614;1.456;2022-12-13T04:03:05;3.10;;;2.80;;
15655;SDS011;7928;43.614;1.456;2022-12-13T04:05:32;2.87;;;2.53;;
15655;SDS011;7928;43.614;1.456;2022-12-13T04:08:00;2.90;;;2.60;;
15655;SDS011;7928;43.614;1.456;2022-12-13T04:10:28;3.13;;;2.27;;
15655;SDS011;7928;43.614;1.456;2022-12-13T04:12:55;2.93;;;2.63;;
15655;SDS011;7928;43.614;1.456;2022-12-13T04:15:40;3.13;;;2.53;;
15655;SDS011;7928;43.614;1.456;2022-12-13T04:18:12;3.10;;;2.80;;
15655;SDS011;7928;43.614;1.456;2022-12-13T04:20:40;5.30;;;3.27;;
15655;SDS011;7928;43.614;1.456;2022-12-13T04:23:07;3.23;;;2.77;;
15655;SDS011;7928;43.614;1.456;2022-12-13T04:25:36;4.80;;;2.90;;
15655;SDS011;7928;43.614;1.456;2022-12-13T04:28:03;3.10;;;2.80;;
15655;SDS011;7928;43.614;1.456;2022-12-13T04:30:31;3.07;;;2.77;;
15655;SDS011;7928;43.614;1.456;2022-12-13T04:32:58;3.90;;;2.73;;
15655;SDS011;7928;43.614;1.456;2022-12-13T04:35:25;3.73;;;3.20;;
15655;SDS011;7928;43.614;1.456;2022-12-13T04:37:52;3.33;;;3.00;;
15655;SDS011;7928;43.614;1.456;2022-12-13T04:40:21;3.77;;;2.93;;
15655;SDS011;7928;43.614;1.456;2022-12-13T04:42:49;6.03;;;3.70;;
15655;SDS011;7928;43.614;1.456;2022-12-13T04:45:19;3.77;;;2.70;;
15655;SDS011;7928;43.614;1.456;2022-12-13T04:47:46;3.37;;;2.90;;
15655;SDS011;7928;43.614;1.456;2022-12-13T04:50:14;3.30;;;3.00;;
15655;SDS011;7928;43.614;1.456;2022-12-13T04:52:41;3.50;;;3.20;;
15655;SDS011;7928;43.614;1.456;2022-12-13T04:55:08;3.07;;;2.77;;
15655;SDS011;7928;43.614;1.456;2022-12-13T04:57:35;5.00;;;2.90;;
15655;SDS011;7928;43.614;1.456;2022-12-13T05:00:04;5.27;;;3.27;;
15655;SDS011;7928;43.614;1.456;2022-12-13T05:02:42;3.80;;;3.40;;
15655;SDS011;7928;43.614;1.456;2022-12-13T05:05:10;4.93;;;3.33;;
15655;SDS011;7928;43.614;1.456;2022-12-13T05:07:37;4.87;;;3.77;;
15655;SDS011;7928;43.614;1.456;2022-12-13T05:10:04;7.23;;;3.70;;
15655;SDS011;7928;43.614;1.456;2022-12-13T05:12:32;6.03;;;3.53;;
15655;SDS011;7928;43.614;1.456;2022-12-13T05:14:59;4.97;;;3.50;;
15655;SDS011;7928;43.614;1.456;2022-12-13T05:17:27;4.60;;;3.50;;
15655;SDS011;7928;43.614;1.456;2022-12-13T05:19:54;8.10;;;4.40;;
15655;SDS011;7928;43.614;1.456;2022-12-13T05:22:21;4.00;;;3.40;;
15655;SDS011;7928;43.614;1.456;2022-12-13T05:24:48;5.60;;;3.40;;
15655;SDS011;7928;43.614;1.456;2022-12-13T05:27:15;6.70;;;3.60;;
15655;SDS011;7928;43.614;1.456;2022-12-13T05:29:43;4.10;;;3.37;;
15655;SDS011;7928;43.614;1.456;2022-12-13T05:32:10;4.30;;;3.30;;
15655;SDS011;7928;43.614;1.456;2022-12-13T05:34:38;4.07;;;3.50;;
15655;SDS011;7928;43.614;1.456;2022-12-13T05:37:05;4.30;;;3.87;;
15655;SDS011;7928;43.614;1.456;2022-12-13T05:39:32;5.60;;;3.60;;
15655;SDS011;7928;43.614;1.456;2022-12-13T05:41:59;5.17;;;4.37;;
15655;SDS011;7928;43.614;1.456;2022-12-13T05:44:26;5.97;;;3.70;;
15655;SDS011;7928;43.614;1.456;2022-12-13T05:46:53;4.50;;;3.70;;
15655;SDS011;7928;43.614;1.456;2022-12-13T05:49:20;5.20;;;3.73;;
15655;SDS011;7928;43.614;1.456;2022-12-13T05:51:49;7.80;;;4.17;;
15655;SDS011;7928;43.614;1.456;2022-12-13T05:54:16;4.50;;;3.60;;
15655;SDS011;7928;43.614;1.456;2022-12-13T05:56:43;6.77;;;3.63;;
15655;SDS011;7928;43.614;1.456;2022-12-13T05:59:10;4.13;;;3.73;;
15655;SDS011;7928;43.614;1.456;2022-12-13T06:01:37;4.63;;;3.70;;
15655;SDS011;7928;43.614;1.456;2022-12-13T06:04:04;4.93;;;3.67;;
15655;SDS011;7928;43.614;1.456;2022-12-13T06:06:31;4.13;;;3.53;;
15655;SDS011;7928;43.614;1.456;2022-12-13T06:08:59;6.97;;;4.23;;
15655;SDS011;7928;43.614;1.456;2022-12-13T06:11:27;5.10;;;3.57;;
15655;SDS011;7928;43.614;1.456;2022-12-13T06:13:54;3.77;;;3.30;;
15655;SDS011;7928;43.614;1.456;2022-12-13T06:16:21;5.20;;;3.70;;
15655;SDS011;7928;43.614;1.456;2022-12-13T06:18:49;4.93;;;3.70;;
15655;SDS011;7928;43.614;1.456;2022-12-13T06:21:16;5.27;;;3.60;;
15655;SDS011;7928;43.614;1.456;2022-12-13T06:23:43;4.50;;;3.77;;
15655;SDS011;7928;43.614;1.456;2022-12-13T06:26:11;5.23;;;3.93;;
15655;SDS011;7928;43.614;1.456;2022-12-13T06:28:38;4.53;;;4.03;;
15655;SDS011;7928;43.614;1.456;2022-12-13T06:31:05;5.93;;;4.03;;
15655;SDS011;7928;43.614;1.456;2022-12-13T06:33:32;3.83;;;3.43;;
15655;SDS011;7928;43.614;1.456;2022-12-13T06:36:01;6.33;;;4.20;;
15655;SDS011;7928;43.614;1.456;2022-12-13T06:38:29;5.87;;;4.00;;
15655;SDS011;7928;43.614;1.456;2022-12-13T06:41:05;12.07;;;5.60;;
15655;SDS011;7928;43.614;1.456;2022-12-13T06:43:34;7.70;;;4.83;;
15655;SDS011;7928;43.614;1.456;2022-12-13T06:46:02;5.40;;;4.43;;
15655;SDS011;7928;43.614;1.456;2022-12-13T06:48:30;5.47;;;4.53;;
15655;SDS011;7928;43.614;1.456;2022-12-13T06:50:58;8.23;;;4.63;;
15655;SDS011;7928;43.614;1.456;2022-12-13T06:53:27;5.30;;;4.20;;
15655;SDS011;7928;43.614;1.456;2022-12-13T06:55:54;6.17;;;4.53;;
15655;SDS011;7928;43.614;1.456;2022-12-13T06:58:21;7.53;;;4.77;;
15655;SDS011;7928;43.614;1.456;2022-12-13T07:00:59;6.10;;;4.40;;
15655;SDS011;7928;43.614;1.456;2022-12-13T07:03:27;7.37;;;4.90;;
15655;SDS011;7928;43.614;1.456;2022-12-13T07:05:55;5.77;;;4.73;;
15655;SDS011;7928;43.614;1.456;2022-12-13T07:08:24;7.50;;;4.80;;
15655;SDS011;7928;43.614;1.456;2022-12-13T07:10:51;6.57;;;4.97;;
15655;SDS011;7928;43.614;1.456;2022-12-13T07:13:19;6.80;;;4.97;;
15655;SDS011;7928;43.614;1.456;2022-12-13T07:15:47;5.57;;;4.97;;
15655;SDS011;7928;43.614;1.456;2022-12-13T07:18:16;5.57;;;4.97;;
15655;SDS011;7928;43.614;1.456;2022-12-13T07:20:44;6.97;;;4.90;;
15655;SDS011;7928;43.614;1.456;2022-12-13T07:23:11;7.50;;;5.60;;
15655;SDS011;7928;43.614;1.456;2022-12-13T07:25:38;6.47;;;4.93;;
15655;SDS011;7928;43.614;1.456;2022-12-13T07:28:07;7.13;;;5.63;;
15655;SDS011;7928;43.614;1.456;2022-12-13T07:30:35;8.93;;;5.40;;
15655;SDS011;7928;43.614;1.456;2022-12-13T07:33:03;7.87;;;5.60;;
15655;SDS011;7928;43.614;1.456;2022-12-13T07:35:32;6.73;;;5.00;;
15655;SDS011;7928;43.614;1.456;2022-12-13T07:38:00;7.50;;;5.67;;
15655;SDS011;7928;43.614;1.456;2022-12-13T07:40:27;10.23;;;6.00;;
15655;SDS011;7928;43.614;1.456;2022-12-13T07:42:54;9.90;;;5.90;;
15655;SDS011;7928;43.614;1.456;2022-12-13T07:45:22;7.33;;;5.63;;
15655;SDS011;7928;43.614;1.456;2022-12-13T07:47:49;7.83;;;5.20;;
15655;SDS011;7928;43.614;1.456;2022-12-13T07:50:16;9.23;;;6.03;;
15655;SDS011;7928;43.614;1.456;2022-12-13T07:52:46;14.67;;;6.80;;
15655;SDS011;7928;43.614;1.456;2022-12-13T07:55:13;10.73;;;6.80;;
15655;SDS011;7928;43.614;1.456;2022-12-13T07:57:41;16.07;;;6.37;;
15655;SDS011;7928;43.614;1.456;2022-12-13T08:00:09;6.97;;;6.07;;
15655;SDS011;7928;43.614;1.456;2022-12-13T08:02:38;9.27;;;5.60;;
15655;SDS011;7928;43.614;1.456;2022-12-13T08:05:06;7.13;;;5.20;;
15655;SDS011;7928;43.614;1.456;2022-12-13T08:07:34;7.00;;;6.30;;
15655;SDS011;7928;43.614;1.456;2022-12-13T08:10:02;6.87;;;6.10;;
15655;SDS011;7928;43.614;1.456;2022-12-13T08:12:30;10.33;;;6.60;;
15655;SDS011;7928;43.614;1.456;2022-12-13T08:14:57;7.43;;;6.63;;
15655;SDS011;7928;43.614;1.456;2022-12-13T08:17:24;8.97;;;6.60;;
15655;SDS011;7928;43.614;1.456;2022-12-13T08:19:51;7.80;;;6.67;;
15655;SDS011;7928;43.614;1.456;2022-12-13T08:22:18;8.23;;;7.27;;
15655;SDS011;7928;43.614;1.456;2022-12-13T08:24:45;8.20;;;6.77;;
15655;SDS011;7928;43.614;1.456;2022-12-13T08:27:13;7.67;;;6.90;;
15655;SDS011;7928;43.614;1.456;2022-12-13T08:29:40;9.37;;;7.23;;
15655;SDS011;7928;43.614;1.456;2022-12-13T08:32:08;11.83;;;7.23;;
15655;SDS011;7928;43.614;1.456;2022-12-13T08:34:36;10.50;;;7.07;;
15655;SDS011;7928;43.614;1.456;2022-12-13T08:37:05;7.30;;;6.50;;
15655;SDS011;7928;43.614;1.456;2022-12-13T08:39:33;7.60;;;6.90;;
15655;SDS011;7928;43.614;1.456;2022-12-13T08:42:01;9.90;;;6.97;;
15655;SDS011;7928;43.614;1.456;2022-12-13T08:44:31;9.07;;;7.33;;
15655;SDS011;7928;43.614;1.456;2022-12-13T08:46:58;7.73;;;6.93;;
15655;SDS011;7928;43.614;1.456;2022-12-13T08:49:25;8.30;;;6.63;;
15655;SDS011;7928;43.614;1.456;2022-12-13T08:51:52;11.37;;;7.50;;
15655;SDS011;7928;43.614;1.456;2022-12-13T08:54:19;17.53;;;8.67;;
15655;SDS011;7928;43.614;1.456;2022-12-13T08:56:46;23.77;;;9.53;;
15655;SDS011;7928;43.614;1.456;2022-12-13T08:59:13;14.03;;;8.67;;
15655;SDS011;7928;43.614;1.456;2022-12-13T09:01:41;12.03;;;7.70;;
15655;SDS011;7928;43.614;1.456;2022-12-13T09:04:08;10.53;;;8.00;;
15655;SDS011;7928;43.614;1.456;2022-12-13T09:06:35;10.30;;;6.60;;
15655;SDS011;7928;43.614;1.456;2022-12-13T09:09:02;9.40;;;6.83;;
15655;SDS011;7928;43.614;1.456;2022-12-13T09:11:29;9.07;;;7.10;;
15655;SDS011;7928;43.614;1.456;2022-12-13T09:13:56;7.73;;;6.40;;
15655;SDS011;7928;43.614;1.456;2022-12-13T09:16:24;8.90;;;7.53;;
15655;SDS011;7928;43.614;1.456;2022-12-13T09:18:52;9.70;;;7.23;;
15655;SDS011;7928;43.614;1.456;2022-12-13T09:21:19;10.27;;;7.17;;
15655;SDS011;7928;43.614;1.456;2022-12-13T09:23:46;9.33;;;7.20;;
15655;SDS011;7928;43.614;1.456;2022-12-13T09:26:14;9.30;;;7.13;;
15655;SDS011;7928;43.614;1.456;2022-12-13T09:28:41;16.83;;;7.67;;
15655;SDS011;7928;43.614;1.456;2022-12-13T09:31:09;10.37;;;7.37;;
15655;SDS011;7928;43.614;1.456;2022-12-13T09:33:37;11.30;;;7.73;;
15655;SDS011;7928;43.614;1.456;2022-12-13T09:36:07;12.77;;;8.93;;
15655;SDS011;7928;43.614;1.456;2022-12-13T09:38:36;12.77;;;8.20;;
15655;SDS011;7928;43.614;1.456;2022-12-13T09:41:06;11.33;;;8.13;;
15655;SDS011;7928;43.614;1.456;2022-12-13T09:43:38;13.70;;;8.67;;
15655;SDS011;7928;43.614;1.456;2022-12-13T09:46:10;11.30;;;6.93;;
15655;SDS011;7928;43.614;1.456;2022-12-13T09:48:46;15.93;;;12.83;;
15655;SDS011;7928;43.614;1.456;2022-12-13T09:51:15;13.77;;;12.43;;
15655;SDS011;7928;43.614;1.456;2022-12-13T09:53:42;12.30;;;11.00;;
15655;SDS011;7928;43.614;1.456;2022-12-13T09:56:11;15.53;;;9.07;;
15655;SDS011;7928;43.614;1.456;2022-12-13T09:58:40;11.67;;;8.77;;
15655;SDS011;7928;43.614;1.456;2022-12-13T10:01:09;8.60;;;6.87;;
15655;SDS011;7928;43.614;1.456;2022-12-13T10:03:37;8.07;;;6.27;;
15655;SDS011;7928;43.614;1.456;2022-12-13T10:06:11;8.67;;;5.87;;
15655;SDS011;7928;43.614;1.456;2022-12-13T10:08:42;11.23;;;7.20;;
15655;SDS011;7928;43.614;1.456;2022-12-13T10:11:13;8.60;;;6.20;;
15655;SDS011;7928;43.614;1.456;2022-12-13T10:13:41;9.33;;;6.60;;
15655;SDS011;7928;43.614;1.456;2022-12-13T10:16:11;9.97;;;6.90;;
15655;SDS011;7928;43.614;1.456;2022-12-13T10:18:43;7.97;;;6.67;;
15655;SDS011;7928;43.614;1.456;2022-12-13T10:21:11;8.17;;;7.03;;
15655;SDS011;7928;43.614;1.456;2022-12-13T10:23:44;11.40;;;7.00;;
15655;SDS011;7928;43.614;1.456;2022-12-13T10:26:11;9.40;;;7.60;;
15655;SDS011;7928;43.614;1.456;2022-12-13T10:28:40;8.23;;;6.57;;
15655;SDS011;7928;43.614;1.456;2022-12-13T10:31:08;12.63;;;6.97;;
15655;SDS011;7928;43.614;1.456;2022-12-13T10:33:48;10.87;;;7.73;;
15655;SDS011;7928;43.614;1.456;2022-12-13T10:36:29;13.50;;;8.60;;
15655;SDS011;7928;43.614;1.456;2022-12-13T10:38:59;9.23;;;7.13;;
15655;SDS011;7928;43.614;1.456;2022-12-13T10:41:31;11.27;;;8.00;;
15655;SDS011;7928;43.614;1.456;2022-12-13T10:44:08;10.93;;;6.60;;
15655;SDS011;7928;43.614;1.456;2022-12-13T10:46:46;12.03;;;7.23;;
15655;SDS011;7928;43.614;1.456;2022-12-13T10:49:17;10.70;;;7.77;;
15655;SDS011;7928;43.614;1.456;2022-12-13T10:51:46;10.87;;;6.33;;
15655;SDS011;7928;43.614;1.456;2022-12-13T10:54:30;13.10;;;7.03;;
15655;SDS011;7928;43.614;1.456;2022-12-13T10:57:01;12.50;;;7.47;;
15655;SDS011;7928;43.614;1.456;2022-12-13T10:59:30;10.00;;;7.37;;
15655;SDS011;7928;43.614;1.456;2022-12-13T11:01:59;9.57;;;7.60;;
15655;SDS011;7928;43.614;1.456;2022-12-13T11:04:28;12.90;;;7.40;;
15655;SDS011;7928;43.614;1.456;2022-12-13T11:06:57;8.57;;;7.67;;
15655;SDS011;7928;43.614;1.456;2022-12-13T11:09:28;10.23;;;7.33;;
15655;SDS011;7928;43.614;1.456;2022-12-13T11:11:57;8.57;;;7.03;;
15655;SDS011;7928;43.614;1.456;2022-12-13T11:14:27;7.50;;;6.70;;
15655;SDS011;7928;43.614;1.456;2022-12-13T11:16:57;7.53;;;6.67;;
15655;SDS011;7928;43.614;1.456;2022-12-13T11:19:32;9.30;;;6.70;;
15655;SDS011;7928;43.614;1.456;2022-12-13T11:22:04;8.73;;;7.57;;
15655;SDS011;7928;43.614;1.456;2022-12-13T11:24:35;9.40;;;7.63;;
15655;SDS011;7928;43.614;1.456;2022-12-13T11:27:09;9.73;;;6.33;;
15655;SDS011;7928;43.614;1.456;2022-12-13T11:29:55;7.90;;;6.57;;
15655;SDS011;7928;43.614;1.456;2022-12-13T11:32:37;8.00;;;5.97;;
15655;SDS011;7928;43.614;1.456;2022-12-13T11:35:25;9.23;;;5.17;;
15655;SDS011;7928;43.614;1.456;2022-12-13T11:37:59;7.33;;;5.73;;
15655;SDS011;7928;43.614;1.456;2022-12-13T11:40:31;7.57;;;5.57;;
15655;SDS011;7928;43.614;1.456;2022-12-13T11:43:07;8.13;;;5.37;;
15655;SDS011;7928;43.614;1.456;2022-12-13T11:45:40;12.30;;;6.10;;
15655;SDS011;7928;43.614;1.456;2022-12-13T11:48:12;5.97;;;5.40;;
15655;SDS011;7928;43.614;1.456;2022-12-13T11:50:46;8.37;;;6.27;;
15655;SDS011;7928;43.614;1.456;2022-12-13T11:53:20;6.60;;;4.97;;
15655;SDS011;7928;43.614;1.456;2022-12-13T11:55:55;8.50;;;5.43;;
15655;SDS011;7928;43.614;1.456;2022-12-13T11:58:29;6.50;;;5.27;;
15655;SDS011;7928;43.614;1.456;2022-12-13T12:01:02;9.53;;;5.93;;
15655;SDS011;7928;43.614;1.456;2022-12-13T12:03:35;7.33;;;4.80;;
15655;SDS011;7928;43.614;1.456;2022-12-13T12:06:07;6.57;;;5.13;;
15655;SDS011;7928;43.614;1.456;2022-12-13T12:08:40;7.07;;;5.10;;
15655;SDS011;7928;43.614;1.456;2022-12-13T12:11:13;9.50;;;5.33;;
15655;SDS011;7928;43.614;1.456;2022-12-13T12:13:48;6.23;;;5.40;;
15655;SDS011;7928;43.614;1.456;2022-12-13T12:19:07;7.80;;;6.43;;
15655;SDS011;7928;43.614;1.456;2022-12-13T12:21:41;8.47;;;5.80;;
15655;SDS011;7928;43.614;1.456;2022-12-13T12:24:17;8.77;;;5.83;;
15655;SDS011;7928;43.614;1.456;2022-12-13T12:26:54;9.40;;;6.60;;
15655;SDS011;7928;43.614;1.456;2022-12-13T12:29:52;8.47;;;7.10;;
15655;SDS011;7928;43.614;1.456;2022-12-13T12:32:39;11.80;;;9.03;;
15655;SDS011;7928;43.614;1.456;2022-12-13T12:35:21;10.87;;;9.57;;
15655;SDS011;7928;43.614;1.456;2022-12-13T12:38:01;10.87;;;8.70;;
15655;SDS011;7928;43.614;1.456;2022-12-13T12:40:41;10.47;;;8.80;;
15655;SDS011;7928;43.614;1.456;2022-12-13T12:43:31;12.47;;;9.43;;
15655;SDS011;7928;43.614;1.456;2022-12-13T12:46:07;11.30;;;7.90;;
15655;SDS011;7928;43.614;1.456;2022-12-13T12:48:58;11.70;;;9.20;;
15655;SDS011;7928;43.614;1.456;2022-12-13T12:51:44;10.57;;;8.37;;
15655;SDS011;7928;43.614;1.456;2022-12-13T12:54:21;13.23;;;8.73;;
15655;SDS011;7928;43.614;1.456;2022-12-13T12:56:58;10.73;;;7.60;;
15655;SDS011;7928;43.614;1.456;2022-12-13T12:59:38;9.13;;;7.83;;
15655;SDS011;7928;43.614;1.456;2022-12-13T13:02:15;10.37;;;7.20;;
15655;SDS011;7928;43.614;1.456;2022-12-13T13:04:47;10.53;;;7.73;;
15655;SDS011;7928;43.614;1.456;2022-12-13T13:07:22;7.83;;;6.73;;
15655;SDS011;7928;43.614;1.456;2022-12-13T13:09:52;8.00;;;6.73;;
15655;SDS011;7928;43.614;1.456;2022-12-13T13:12:20;9.17;;;6.60;;
15655;SDS011;7928;43.614;1.456;2022-12-13T13:17:45;12.83;;;7.63;;
15655;SDS011;7928;43.614;1.456;2022-12-13T13:20:19;11.80;;;7.93;;
15655;SDS011;7928;43.614;1.456;2022-12-13T13:22:48;11.07;;;7.40;;
15655;SDS011;7928;43.614;1.456;2022-12-13T13:25:20;17.13;;;7.93;;
15655;SDS011;7928;43.614;1.456;2022-12-13T13:27:51;9.10;;;7.60;;
15655;SDS011;7928;43.614;1.456;2022-12-13T13:30:27;8.40;;;7.00;;
15655;SDS011;7928;43.614;1.456;2022-12-13T13:32:56;10.30;;;7.17;;
15655;SDS011;7928;43.614;1.456;2022-12-13T13:47:36;9.27;;;6.43;;
15655;SDS011;7928;43.614;1.456;2022-12-13T14:08:34;13.07;;;7.60;;
15655;SDS011;7928;43.614;1.456;2022-12-13T14:11:15;11.10;;;8.07;;
15655;SDS011;7928;43.614;1.456;2022-12-13T14:22:56;11.77;;;9.27;;
15655;SDS011;7928;43.614;1.456;2022-12-13T14:28:24;13.80;;;8.70;;
15655;SDS011;7928;43.614;1.456;2022-12-13T14:30:58;13.87;;;9.17;;
15655;SDS011;7928;43.614;1.456;2022-12-13T14:33:25;14.90;;;8.40;;
15655;SDS011;7928;43.614;1.456;2022-12-13T14:35:54;16.80;;;8.03;;
15655;SDS011;7928;43.614;1.456;2022-12-13T14:38:23;12.40;;;7.87;;
15655;SDS011;7928;43.614;1.456;2022-12-13T14:40:52;11.90;;;7.70;;
15655;SDS011;7928;43.614;1.456;2022-12-13T14:43:24;10.87;;;8.20;;
15655;SDS011;7928;43.614;1.456;2022-12-13T14:45:52;12.33;;;8.30;;
15655;SDS011;7928;43.614;1.456;2022-12-13T14:48:21;9.23;;;6.10;;
15655;SDS011;7928;43.614;1.456;2022-12-13T14:50:49;9.10;;;6.20;;
15655;SDS011;7928;43.614;1.456;2022-12-13T14:53:20;9.93;;;6.10;;
15655;SDS011;7928;43.614;1.456;2022-12-13T14:56:03;7.60;;;5.13;;
15655;SDS011;7928;43.614;1.456;2022-12-13T14:58:33;9.57;;;5.37;;
15655;SDS011;7928;43.614;1.456;2022-12-13T15:01:01;9.93;;;5.83;;
15655;SDS011;7928;43.614;1.456;2022-12-13T15:03:29;6.57;;;5.17;;
15655;SDS011;7928;43.614;1.456;2022-12-13T15:05:57;9.77;;;6.03;;
15655;SDS011;7928;43.614;1.456;2022-12-13T15:08:26;8.83;;;5.73;;
15655;SDS011;7928;43.614;1.456;2022-12-13T15:10:54;9.33;;;5.33;;
15655;SDS011;7928;43.614;1.456;2022-12-13T15:13:26;7.50;;;5.43;;
15655;SDS011;7928;43.614;1.456;2022-12-13T15:15:59;7.63;;;6.17;;
15655;SDS011;7928;43.614;1.456;2022-12-13T15:18:28;8.70;;;5.90;;
15655;SDS011;7928;43.614;1.456;2022-12-13T15:20:56;7.17;;;5.90;;
15655;SDS011;7928;43.614;1.456;2022-12-13T15:23:24;7.67;;;6.03;;
15655;SDS011;7928;43.614;1.456;2022-12-13T15:25:56;12.00;;;6.20;;
15655;SDS011;7928;43.614;1.456;2022-12-13T15:28:26;10.27;;;5.60;;
15655;SDS011;7928;43.614;1.456;2022-12-13T15:30:56;8.50;;;6.03;;
15655;SDS011;7928;43.614;1.456;2022-12-13T15:33:26;6.50;;;5.80;;
15655;SDS011;7928;43.614;1.456;2022-12-13T15:36:02;11.47;;;6.50;;
15655;SDS011;7928;43.614;1.456;2022-12-13T15:38:32;10.63;;;7.40;;
15655;SDS011;7928;43.614;1.456;2022-12-13T15:41:00;14.50;;;6.80;;
15655;SDS011;7928;43.614;1.456;2022-12-13T15:43:31;9.23;;;5.70;;
15655;SDS011;7928;43.614;1.456;2022-12-13T15:46:03;10.07;;;6.03;;
15655;SDS011;7928;43.614;1.456;2022-12-13T15:48:33;10.93;;;6.57;;
15655;SDS011;7928;43.614;1.456;2022-12-13T15:51:03;7.07;;;5.70;;
15655;SDS011;7928;43.614;1.456;2022-12-13T15:53:31;10.83;;;6.20;;
15655;SDS011;7928;43.614;1.456;2022-12-13T15:55:59;11.67;;;6.00;;
15655;SDS011;7928;43.614;1.456;2022-12-13T15:58:26;9.37;;;6.53;;
15655;SDS011;7928;43.614;1.456;2022-12-13T16:00:57;10.47;;;6.53;;
15655;SDS011;7928;43.614;1.456;2022-12-13T16:03:32;8.13;;;6.20;;
15655;SDS011;7928;43.614;1.456;2022-12-13T16:06:06;9.97;;;6.73;;
15655;SDS011;7928;43.614;1.456;2022-12-13T16:08:34;7.57;;;5.83;;
15655;SDS011;7928;43.614;1.456;2022-12-13T16:11:05;11.37;;;7.73;;